Time;durP1;ratioP1;P1;durP2;ratioP2;P2;SDS_P1;SDS_P2;PMS_P1;PMS_P2;Temp;Humidity;BMP_temperature;BMP_pressure;BME280_temperature;BME280_humidity;BME280_pressure;Samples;Min_cycle;Max_cycle;Signal;HPM_P1;HPM_P2
2023/07/31 00:00:18;;;;;;;11.93;5.23;;;18.10;99.90;;;;;;5073897;28;20277;-86
2023/07/31 00:02:44;;;;;;;11.53;4.97;;;18.10;99.90;;;;;;5072119;28;20175;-87
2023/07/31 00:05:15;;;;;;;11.13;5.03;;;18.10;99.90;;;;;;5055518;28;20218;-86
2023/07/31 00:07:41;;;;;;;18.10;6.10;;;18.10;99.90;;;;;;5072285;28;20186;-86
2023/07/31 00:10:07;;;;;;;10.87;5.20;;;18.10;99.90;;;;;;5072219;28;20180;-87
2023/07/31 00:12:32;;;;;;;11.63;5.43;;;18.10;99.90;;;;;;5070797;28;20172;-86
2023/07/31 00:14:58;;;;;;;14.53;5.50;;;18.20;99.90;;;;;;5072659;28;20253;-88
2023/07/31 00:17:24;;;;;;;13.63;6.30;;;18.20;99.90;;;;;;5073008;28;20171;-88
2023/07/31 00:19:50;;;;;;;12.57;5.63;;;18.10;99.90;;;;;;5071061;28;20178;-88
2023/07/31 00:22:17;;;;;;;13.00;5.57;;;18.10;99.90;;;;;;5072043;28;20321;-88
2023/07/31 00:24:42;;;;;;;11.93;5.40;;;18.10;99.90;;;;;;5072201;28;20215;-86
2023/07/31 00:27:08;;;;;;;13.37;5.43;;;18.10;99.90;;;;;;5073743;28;20177;-86
2023/07/31 00:29:34;;;;;;;20.27;6.23;;;18.20;99.90;;;;;;5072121;28;20183;-85
2023/07/31 00:31:59;;;;;;;11.37;5.57;;;18.20;99.90;;;;;;5071667;28;20210;-87
2023/07/31 00:34:26;;;;;;;14.93;5.83;;;18.20;99.90;;;;;;5071872;28;20199;-87
2023/07/31 00:36:51;;;;;;;14.63;6.17;;;18.20;99.90;;;;;;5072473;28;20185;-87
2023/07/31 00:39:18;;;;;;;16.37;5.63;;;18.20;99.90;;;;;;5073183;28;20167;-88
2023/07/31 00:41:44;;;;;;;11.80;5.53;;;18.20;99.90;;;;;;5074860;28;20179;-88
2023/07/31 00:44:09;;;;;;;13.90;6.23;;;18.20;99.90;;;;;;5073888;28;20688;-88
2023/07/31 00:46:35;;;;;;;13.77;5.67;;;18.20;99.90;;;;;;5075240;28;20175;-87
2023/07/31 00:49:01;;;;;;;11.93;5.57;;;18.20;99.90;;;;;;5073652;28;20266;-87
2023/07/31 00:51:26;;;;;;;15.40;5.93;;;18.10;99.90;;;;;;5073624;28;20502;-88
2023/07/31 00:53:54;;;;;;;11.47;5.60;;;18.10;99.90;;;;;;5093658;28;20205;-87
2023/07/31 00:56:19;;;;;;;11.43;5.47;;;18.10;99.90;;;;;;5074405;28;20693;-88
2023/07/31 00:58:45;;;;;;;13.33;5.93;;;18.10;99.90;;;;;;5075590;28;20263;-87
2023/07/31 01:01:11;;;;;;;12.50;5.90;;;18.10;99.90;;;;;;5093606;28;20257;-86
2023/07/31 01:03:37;;;;;;;11.90;5.50;;;18.10;99.90;;;;;;5075452;28;20223;-86
2023/07/31 01:06:17;;;;;;;12.87;5.47;;;18.20;99.90;;;;;;5075245;28;20167;-87
2023/07/31 01:08:54;;;;;;;14.57;5.63;;;18.30;99.90;;;;;;5075755;28;20179;-88
2023/07/31 01:11:27;;;;;;;13.70;6.07;;;18.40;99.90;;;;;;5075116;28;20484;-89
2023/07/31 01:13:54;;;;;;;13.30;5.43;;;18.30;99.90;;;;;;5075762;28;20178;-87
2023/07/31 01:16:19;;;;;;;14.60;6.03;;;18.30;99.90;;;;;;5077374;28;20164;-86
2023/07/31 01:18:45;;;;;;;11.17;5.10;;;18.20;99.90;;;;;;5094380;28;20215;-86
2023/07/31 01:21:35;;;;;;;13.97;5.73;;;18.20;99.90;;;;;;5084702;28;20274;-88
2023/07/31 01:24:37;;;;;;;15.20;5.40;;;18.20;99.90;;;;;;5092030;28;20211;-87
2023/07/31 01:27:17;;;;;;;13.47;5.90;;;18.10;99.90;;;;;;5085494;28;20603;-86
2023/07/31 01:30:00;;;;;;;10.40;5.33;;;18.20;99.90;;;;;;5083697;28;20175;-86
2023/07/31 01:32:28;;;;;;;15.80;5.80;;;18.20;99.90;;;;;;5092513;28;20169;-86
2023/07/31 01:34:55;;;;;;;11.33;5.00;;;18.10;99.90;;;;;;5094589;28;20172;-88
2023/07/31 01:37:21;;;;;;;11.40;5.03;;;18.10;99.90;;;;;;5080758;28;20627;-87
2023/07/31 01:39:46;;;;;;;13.67;5.03;;;18.10;99.90;;;;;;5077952;28;20181;-86
2023/07/31 01:42:12;;;;;;;9.83;5.47;;;18.00;99.90;;;;;;5079410;28;20329;-87
2023/07/31 01:44:38;;;;;;;11.60;5.63;;;18.00;99.90;;;;;;5078894;28;20288;-85
2023/07/31 01:47:03;;;;;;;12.03;5.23;;;18.10;99.90;;;;;;5077951;28;20225;-87
2023/07/31 01:49:30;;;;;;;11.60;6.07;;;18.20;99.90;;;;;;5079039;28;20202;-88
2023/07/31 01:51:56;;;;;;;13.53;5.60;;;18.10;99.90;;;;;;5077995;28;20180;-87
2023/07/31 01:54:21;;;;;;;11.13;5.70;;;18.10;99.90;;;;;;5078974;28;20179;-87
2023/07/31 01:56:47;;;;;;;12.77;5.23;;;18.30;99.90;;;;;;5078688;28;20658;-85
2023/07/31 01:59:13;;;;;;;13.83;5.70;;;18.10;99.90;;;;;;5078781;28;20346;-87
2023/07/31 02:01:38;;;;;;;11.93;5.50;;;18.20;99.90;;;;;;5078447;28;20262;-86
2023/07/31 02:04:04;;;;;;;44.07;39.77;;;18.30;99.90;;;;;;5078614;28;20211;-87
2023/07/31 02:06:30;;;;;;;12.80;6.27;;;18.30;99.90;;;;;;5078551;28;20181;-87
2023/07/31 02:08:56;;;;;;;13.00;6.07;;;18.40;99.90;;;;;;5078295;28;20314;-85
2023/07/31 02:11:21;;;;;;;10.67;6.10;;;18.20;99.90;;;;;;5078608;28;20171;-88
2023/07/31 02:13:47;;;;;;;12.57;6.30;;;18.20;99.90;;;;;;5078560;28;20181;-88
2023/07/31 02:16:13;;;;;;;11.07;6.27;;;18.20;99.90;;;;;;5079061;28;20170;-88
2023/07/31 02:18:39;;;;;;;12.83;5.83;;;18.10;99.90;;;;;;5078087;28;20702;-86
2023/07/31 02:21:04;;;;;;;9.77;5.70;;;18.10;99.90;;;;;;5078350;28;20175;-86
2023/07/31 02:23:30;;;;;;;12.03;6.10;;;18.10;99.90;;;;;;5078150;28;20671;-88
2023/07/31 02:25:55;;;;;;;12.03;5.97;;;18.10;99.90;;;;;;5078023;28;20178;-88
2023/07/31 02:28:21;;;;;;;11.10;5.40;;;18.10;99.90;;;;;;5077834;28;20206;-88
2023/07/31 02:30:47;;;;;;;12.70;5.93;;;18.20;99.90;;;;;;5077636;28;20800;-86
2023/07/31 02:33:12;;;;;;;12.07;5.73;;;18.20;99.90;;;;;;5077860;28;20288;-86
2023/07/31 02:35:38;;;;;;;12.10;5.77;;;18.20;99.90;;;;;;5077806;28;20571;-86
2023/07/31 02:38:04;;;;;;;10.30;5.17;;;18.10;99.90;;;;;;5077632;28;20182;-86
2023/07/31 02:40:29;;;;;;;8.90;5.80;;;18.10;99.90;;;;;;5077813;28;20209;-86
2023/07/31 02:42:55;;;;;;;9.27;5.80;;;18.20;99.90;;;;;;5095765;28;20648;-85
2023/07/31 02:45:20;;;;;;;9.70;5.90;;;18.10;99.90;;;;;;5077727;28;20175;-87
2023/07/31 02:47:46;;;;;;;10.57;5.30;;;18.10;99.90;;;;;;5078123;28;20173;-86
2023/07/31 02:50:12;;;;;;;8.07;5.00;;;18.10;99.90;;;;;;5077726;28;20250;-86
2023/07/31 02:52:37;;;;;;;10.37;5.10;;;18.10;99.90;;;;;;5077318;28;20179;-87
2023/07/31 02:55:03;;;;;;;10.17;5.50;;;18.20;99.90;;;;;;5077859;28;20171;-88
2023/07/31 02:57:29;;;;;;;11.83;5.60;;;18.10;99.90;;;;;;5076682;28;20242;-88
2023/07/31 02:59:55;;;;;;;9.40;5.00;;;18.10;99.90;;;;;;5077450;28;20190;-87
2023/07/31 03:02:20;;;;;;;9.83;5.10;;;18.20;99.90;;;;;;5076263;28;20173;-87
2023/07/31 03:04:46;;;;;;;9.33;5.03;;;18.10;99.90;;;;;;5077870;28;20675;-87
2023/07/31 03:07:13;;;;;;;7.87;4.60;;;18.10;99.90;;;;;;5077250;28;20608;-87
2023/07/31 03:09:38;;;;;;;6.80;4.37;;;18.00;99.90;;;;;;5077651;28;20174;-86
2023/07/31 03:12:04;;;;;;;9.37;4.93;;;18.10;99.90;;;;;;5077532;28;20630;-86
2023/07/31 03:14:30;;;;;;;10.07;4.70;;;18.00;99.90;;;;;;5077761;28;20197;-88
2023/07/31 03:16:58;;;;;;;8.13;4.83;;;18.00;99.90;;;;;;5076748;28;20164;-88
2023/07/31 03:19:25;;;;;;;8.80;5.20;;;18.00;99.90;;;;;;5077703;28;20185;-86
2023/07/31 03:21:51;;;;;;;10.37;4.80;;;17.90;99.90;;;;;;5076817;28;20632;-88
2023/07/31 03:24:16;;;;;;;9.80;4.83;;;17.80;99.90;;;;;;5077209;28;20213;-86
2023/07/31 03:26:42;;;;;;;8.43;5.27;;;17.90;99.90;;;;;;5076340;28;20174;-86
2023/07/31 03:29:08;;;;;;;7.50;4.70;;;17.90;99.90;;;;;;5077864;28;20230;-88
2023/07/31 03:31:34;;;;;;;11.60;5.00;;;17.90;99.90;;;;;;5077668;28;20262;-88
2023/07/31 03:33:59;;;;;;;7.30;4.60;;;17.90;99.90;;;;;;5076895;28;20278;-89
2023/07/31 03:36:25;;;;;;;9.37;5.67;;;17.90;99.90;;;;;;5094645;28;20191;-87
2023/07/31 03:38:52;;;;;;;9.80;5.43;;;17.90;99.90;;;;;;5076576;28;20851;-88
2023/07/31 03:41:17;;;;;;;8.17;4.97;;;17.90;99.90;;;;;;5076568;28;20570;-86
2023/07/31 03:43:43;;;;;;;10.10;5.07;;;17.80;99.90;;;;;;5076916;28;20207;-88
2023/07/31 03:46:09;;;;;;;8.27;5.07;;;17.80;99.90;;;;;;5076147;28;20171;-87
2023/07/31 03:48:34;;;;;;;7.63;4.93;;;17.80;99.90;;;;;;5076439;28;20649;-86
2023/07/31 03:51:00;;;;;;;8.43;5.43;;;17.80;99.90;;;;;;5075231;28;20172;-86
2023/07/31 03:53:26;;;;;;;8.30;4.90;;;17.70;99.90;;;;;;5076413;28;20168;-89
2023/07/31 03:55:51;;;;;;;8.97;5.00;;;17.70;99.90;;;;;;5076723;28;20270;-88
2023/07/31 03:58:17;;;;;;;6.87;4.57;;;17.70;99.90;;;;;;5076466;28;20176;-85
2023/07/31 04:00:43;;;;;;;8.90;5.20;;;17.70;99.90;;;;;;5075604;28;20214;-86
2023/07/31 04:03:14;;;;;;;6.67;4.30;;;17.70;99.90;;;;;;5075374;28;20200;-88
2023/07/31 04:05:40;;;;;;;8.97;4.70;;;17.60;99.90;;;;;;5075969;28;20263;-87
2023/07/31 04:08:06;;;;;;;7.10;4.83;;;17.70;99.90;;;;;;5076209;28;20217;-88
2023/07/31 04:10:33;;;;;;;11.23;4.83;;;17.60;99.90;;;;;;5076049;28;20179;-87
2023/07/31 04:13:00;;;;;;;10.77;4.73;;;17.70;99.90;;;;;;5075620;28;20266;-87
2023/07/31 04:15:26;;;;;;;7.70;4.70;;;17.60;99.90;;;;;;5076561;28;20205;-88
2023/07/31 04:17:51;;;;;;;7.67;4.47;;;17.60;99.90;;;;;;5075877;28;20179;-88
2023/07/31 04:20:17;;;;;;;9.17;5.10;;;17.60;99.90;;;;;;5093016;28;20171;-84
2023/07/31 04:22:44;;;;;;;8.90;4.77;;;17.60;99.90;;;;;;5076140;28;20206;-86
2023/07/31 04:25:09;;;;;;;8.37;4.70;;;17.60;99.90;;;;;;5075576;28;20211;-89
2023/07/31 04:27:35;;;;;;;9.23;5.40;;;17.60;99.90;;;;;;5077237;28;20622;-86
2023/07/31 04:30:02;;;;;;;8.17;4.67;;;17.60;99.90;;;;;;5076168;28;20179;-87
2023/07/31 04:32:29;;;;;;;7.03;5.00;;;17.60;99.90;;;;;;5075011;28;20626;-89
2023/07/31 04:34:55;;;;;;;7.00;4.60;;;17.60;99.90;;;;;;5075974;28;20175;-87
2023/07/31 04:37:21;;;;;;;8.53;5.03;;;17.70;99.90;;;;;;5075117;28;20174;-86
2023/07/31 04:39:46;;;;;;;6.87;4.37;;;17.70;99.90;;;;;;5075692;28;20175;-88
2023/07/31 04:42:12;;;;;;;11.67;5.33;;;17.60;99.90;;;;;;5075863;28;20546;-86
2023/07/31 04:44:38;;;;;;;8.57;4.73;;;17.60;99.90;;;;;;5074841;28;20689;-86
2023/07/31 04:47:03;;;;;;;7.17;4.30;;;17.60;99.90;;;;;;5075751;28;20165;-85
2023/07/31 04:49:29;;;;;;;8.37;4.63;;;17.70;99.90;;;;;;5074523;28;20176;-86
2023/07/31 04:51:55;;;;;;;7.40;4.53;;;17.70;99.90;;;;;;5075392;28;20248;-86
2023/07/31 04:54:20;;;;;;;7.53;4.53;;;17.70;99.90;;;;;;5092246;28;20194;-87
2023/07/31 04:56:47;;;;;;;7.40;4.37;;;17.70;99.90;;;;;;5074356;28;20185;-86
2023/07/31 04:59:13;;;;;;;9.13;4.73;;;17.70;99.90;;;;;;5074397;28;20258;-85
2023/07/31 05:01:39;;;;;;;8.97;4.27;;;17.80;99.90;;;;;;5075069;28;20213;-86
2023/07/31 05:04:05;;;;;;;10.77;5.27;;;17.80;99.90;;;;;;5074908;28;20249;-86
2023/07/31 05:06:30;;;;;;;9.10;5.00;;;17.70;99.90;;;;;;5073844;28;20168;-88
2023/07/31 05:08:56;;;;;;;8.37;4.33;;;17.60;99.90;;;;;;5074728;28;20174;-86
2023/07/31 05:11:22;;;;;;;7.43;4.63;;;17.60;99.90;;;;;;5074281;28;20176;-86
2023/07/31 05:13:47;;;;;;;8.63;4.93;;;17.50;99.90;;;;;;5074723;28;20173;-86
2023/07/31 05:16:13;;;;;;;8.97;4.73;;;17.60;99.90;;;;;;5074844;28;20651;-86
2023/07/31 05:18:38;;;;;;;7.87;4.43;;;17.50;99.90;;;;;;5074047;28;20203;-86
2023/07/31 05:21:05;;;;;;;7.33;4.53;;;17.40;99.90;;;;;;5092180;28;20175;-88
2023/07/31 05:23:32;;;;;;;9.10;4.87;;;17.40;99.90;;;;;;5074141;28;20426;-86
2023/07/31 05:26:09;;;;;;;7.97;4.43;;;17.40;99.90;;;;;;5073857;28;20177;-87
2023/07/31 05:28:36;;;;;;;7.47;3.93;;;17.30;99.90;;;;;;5074905;28;20181;-86
2023/07/31 05:31:05;;;;;;;8.97;4.50;;;17.30;99.90;;;;;;5074496;28;20203;-88
2023/07/31 05:33:31;;;;;;;8.73;4.90;;;17.30;99.90;;;;;;5073936;28;20278;-86
2023/07/31 05:35:57;;;;;;;8.03;4.07;;;17.20;99.90;;;;;;5074551;28;20270;-87
2023/07/31 05:38:22;;;;;;;11.17;4.83;;;17.20;99.90;;;;;;5075080;28;20175;-88
2023/07/31 05:40:48;;;;;;;9.17;5.03;;;17.10;99.90;;;;;;5075050;28;20767;-86
2023/07/31 05:43:15;;;;;;;7.63;4.80;;;17.20;99.90;;;;;;5075009;28;20175;-86
2023/07/31 05:45:42;;;;;;;8.40;4.13;;;17.20;99.90;;;;;;5074019;28;20182;-88
2023/07/31 05:48:08;;;;;;;8.63;4.60;;;17.30;99.90;;;;;;5074545;28;20183;-86
2023/07/31 05:50:34;;;;;;;8.23;4.77;;;17.30;99.90;;;;;;5074711;28;20513;-87
2023/07/31 05:52:59;;;;;;;8.80;4.17;;;17.30;99.90;;;;;;5092858;28;20218;-89
2023/07/31 05:55:28;;;;;;;8.43;4.23;;;17.30;99.90;;;;;;5073651;28;20168;-87
2023/07/31 05:57:54;;;;;;;10.10;4.60;;;17.30;99.90;;;;;;5074653;28;20186;-89
2023/07/31 06:00:20;;;;;;;9.27;4.77;;;17.40;99.90;;;;;;5074179;28;20171;-88
2023/07/31 06:02:47;;;;;;;8.20;4.57;;;17.30;99.90;;;;;;5075185;28;20173;-89
2023/07/31 06:05:13;;;;;;;9.00;4.70;;;17.30;99.90;;;;;;5074240;28;20218;-87
2023/07/31 06:07:38;;;;;;;8.07;4.80;;;17.40;99.90;;;;;;5075148;28;20254;-90
2023/07/31 06:10:06;;;;;;;8.67;4.73;;;17.30;99.90;;;;;;5074571;28;20690;-92
2023/07/31 06:12:32;;;;;;;7.13;4.37;;;17.40;99.90;;;;;;5075231;28;20208;-88
2023/07/31 06:14:58;;;;;;;10.63;4.27;;;17.40;99.90;;;;;;5074468;28;20216;-88
2023/07/31 06:17:24;;;;;;;7.40;3.90;;;17.40;99.90;;;;;;5075974;28;20175;-88
2023/07/31 06:19:50;;;;;;;8.90;4.30;;;17.40;99.90;;;;;;5078014;28;20631;-88
2023/07/31 06:22:17;;;;;;;5.80;3.93;;;17.40;99.90;;;;;;5077656;28;20166;-88
2023/07/31 06:24:44;;;;;;;9.97;4.47;;;17.50;99.90;;;;;;5078169;28;20207;-88
2023/07/31 06:27:10;;;;;;;9.57;4.20;;;17.40;99.90;;;;;;5077690;28;20172;-88
2023/07/31 06:29:36;;;;;;;10.07;4.77;;;17.50;99.90;;;;;;5078522;28;20179;-91
2023/07/31 06:32:03;;;;;;;6.30;3.83;;;17.50;99.90;;;;;;5078644;28;20627;-91
2023/07/31 06:34:29;;;;;;;6.40;4.37;;;17.60;99.90;;;;;;5078154;28;20185;-86
2023/07/31 06:36:58;;;;;;;9.03;4.30;;;17.60;99.90;;;;;;5078137;28;20176;-87
2023/07/31 06:39:24;;;;;;;8.90;4.27;;;17.60;99.90;;;;;;5076934;28;20174;-86
2023/07/31 06:41:50;;;;;;;6.30;3.77;;;17.60;99.90;;;;;;5077447;28;20186;-88
2023/07/31 06:44:16;;;;;;;9.23;4.00;;;17.70;99.90;;;;;;5077839;28;20216;-87
2023/07/31 06:46:42;;;;;;;7.90;4.00;;;17.60;99.90;;;;;;5111599;28;20176;-86
2023/07/31 06:49:08;;;;;;;8.07;4.00;;;17.60;99.90;;;;;;5077248;28;20206;-86
2023/07/31 06:51:35;;;;;;;9.07;4.27;;;17.60;99.90;;;;;;5076663;28;20175;-86
2023/07/31 06:54:01;;;;;;;7.60;3.70;;;17.80;99.90;;;;;;5077232;28;20175;-86
2023/07/31 06:56:27;;;;;;;7.87;3.67;;;17.80;99.90;;;;;;5076361;28;20523;-86
2023/07/31 06:58:53;;;;;;;8.20;4.37;;;17.80;99.90;;;;;;5076279;28;20181;-87
2023/07/31 07:01:18;;;;;;;9.07;3.83;;;17.90;99.90;;;;;;5078124;28;20220;-91
2023/07/31 07:03:44;;;;;;;8.47;4.13;;;18.00;99.90;;;;;;5077565;28;20205;-88
2023/07/31 07:06:10;;;;;;;7.30;3.73;;;18.10;99.90;;;;;;5077754;28;20642;-89
2023/07/31 07:08:35;;;;;;;9.30;3.80;;;18.20;99.90;;;;;;5111362;28;20204;-86
2023/07/31 07:11:01;;;;;;;6.93;3.83;;;18.20;99.90;;;;;;5077212;28;20633;-86
